Terminal Aerodrome Forecast
Issued by NWS

Home | Current Version | Previous Version | Text Only | Print | Product List | Glossary On
Versions: 1 2 3 4 5 6 7 8 9 10 11 12 13 14 15
000
FTUS46 KMFR 242300 RRA
TAFLMT
TAF
KLMT 242340Z 2500/2524 24012G20KT P6SM -SHRA OVC050
     FM250400 27008KT P6SM VCSH OVC050
     FM250900 VRB03KT P6SM -SHRA OVC040
     FM251600 30005KT P6SM VCSH OVC060
     FM252100 32012KT P6SM BKN060=

USA.gov is the U.S. government's official web portal to all federal, state and local government web resources and services.